createdAt,value
2018-12-05T00:00:44.761Z,1020.60
2018-12-05T00:01:44.761Z,1020.60
2018-12-05T00:02:44.755Z,1020.61
2018-12-05T00:03:44.877Z,1020.64
2018-12-05T00:04:44.769Z,1020.68
2018-12-05T00:05:44.862Z,1020.70
2018-12-05T00:06:44.785Z,1020.67
2018-12-05T00:07:44.908Z,1020.65
2018-12-05T00:08:44.818Z,1020.70
2018-12-05T00:09:45.039Z,1020.69
2018-12-05T00:10:44.864Z,1020.73
2018-12-05T00:11:45.470Z,1020.72
2018-12-05T00:12:44.873Z,1020.76
2018-12-05T00:13:44.842Z,1020.72
2018-12-05T00:14:45.021Z,1020.75
2018-12-05T00:15:45.860Z,1020.73
2018-12-05T00:16:44.855Z,1020.75
2018-12-05T00:17:44.907Z,1020.71
2018-12-05T00:18:45.830Z,1020.70
2018-12-05T00:19:44.897Z,1020.77
2018-12-05T00:20:44.904Z,1020.78
2018-12-05T00:21:45.873Z,1020.72
2018-12-05T00:22:44.941Z,1020.80
2018-12-05T00:23:44.913Z,1020.79
2018-12-05T00:24:45.112Z,1020.80
2018-12-05T00:25:44.945Z,1020.81
2018-12-05T00:26:45.416Z,1020.81
2018-12-05T00:27:44.931Z,1020.77
2018-12-05T00:28:45.181Z,1020.79
2018-12-05T00:29:45.040Z,1020.82
2018-12-05T00:30:44.885Z,1020.84
2018-12-05T00:31:45.045Z,1020.88
2018-12-05T00:32:44.905Z,1020.88
2018-12-05T00:33:45.033Z,1020.85
2018-12-05T00:34:45.024Z,1020.93
2018-12-05T00:35:44.983Z,1020.93
2018-12-05T00:36:44.910Z,1020.96
2018-12-05T00:37:45.211Z,1020.96
2018-12-05T00:38:44.894Z,1020.97
2018-12-05T00:39:45.318Z,1020.98
2018-12-05T00:40:45.139Z,1020.97
2018-12-05T00:41:44.999Z,1021.04
2018-12-05T00:42:45.026Z,1021.02
2018-12-05T00:43:45.833Z,1021.01
2018-12-05T00:44:45.083Z,1021.00
2018-12-05T00:45:44.924Z,1020.99
2018-12-05T00:46:44.954Z,1020.97
2018-12-05T00:47:44.970Z,1021.03
2018-12-05T00:48:44.960Z,1021.02
2018-12-05T00:49:44.951Z,1021.00
2018-12-05T00:50:44.925Z,1021.06
2018-12-05T00:51:44.925Z,1021.06
2018-12-05T00:52:45.287Z,1021.06
2018-12-05T00:53:44.967Z,1021.06
2018-12-05T00:54:45.962Z,1021.08
2018-12-05T00:55:44.943Z,1021.08
2018-12-05T00:56:45.979Z,1021.12
2018-12-05T00:57:44.949Z,1021.12
2018-12-05T00:58:45.005Z,1021.10
2018-12-05T00:59:45.137Z,1021.09
2018-12-05T01:00:44.968Z,1021.16
2018-12-05T01:01:45.040Z,1021.16
2018-12-05T01:02:45.032Z,1021.16
2018-12-05T01:03:45.000Z,1021.11
2018-12-05T01:04:45.012Z,1021.14
2018-12-05T01:05:44.999Z,1021.12
2018-12-05T01:06:45.188Z,1021.14
2018-12-05T01:07:45.099Z,1021.15
2018-12-05T01:08:45.100Z,1021.13
2018-12-05T01:09:45.109Z,1021.11
2018-12-05T01:10:45.009Z,1021.11
2018-12-05T01:11:45.022Z,1021.06
2018-12-05T01:12:45.032Z,1021.11
2018-12-05T01:13:45.486Z,1021.13
2018-12-05T01:14:45.182Z,1021.17
2018-12-05T01:15:45.077Z,1021.14
2018-12-05T01:16:45.454Z,1021.14
2018-12-05T01:17:45.029Z,1021.16
2018-12-05T01:18:45.476Z,1021.19
2018-12-05T01:19:45.057Z,1021.27
2018-12-05T01:20:45.094Z,1021.30
2018-12-05T01:21:45.055Z,1021.31
2018-12-05T01:22:45.092Z,1021.33
2018-12-05T01:23:45.117Z,1021.36
2018-12-05T01:24:45.084Z,1021.41
2018-12-05T01:25:45.236Z,1021.41
2018-12-05T01:26:45.132Z,1021.42
2018-12-05T01:27:45.116Z,1021.45
2018-12-05T01:28:45.098Z,1021.44
2018-12-05T01:29:45.175Z,1021.46
2018-12-05T01:30:45.125Z,1021.48
2018-12-05T01:31:45.235Z,1021.46
2018-12-05T01:32:45.203Z,1021.42
2018-12-05T01:33:45.174Z,1021.44
2018-12-05T01:34:45.899Z,1021.42
2018-12-05T01:35:45.111Z,1021.41
2018-12-05T01:36:46.352Z,1021.46
2018-12-05T01:37:45.131Z,1021.40
2018-12-05T01:38:45.176Z,1021.38
2018-12-05T01:39:45.116Z,1021.34
2018-12-05T01:40:45.174Z,1021.38
2018-12-05T01:41:45.131Z,1021.40
2018-12-05T01:42:45.185Z,1021.40
2018-12-05T01:43:45.168Z,1021.39
2018-12-05T01:44:45.359Z,1021.41
2018-12-05T01:45:45.155Z,1021.41
2018-12-05T01:46:45.150Z,1021.40
2018-12-05T01:47:45.131Z,1021.40
2018-12-05T01:48:45.173Z,1021.37
2018-12-05T01:49:45.179Z,1021.38
2018-12-05T01:50:45.223Z,1021.41
2018-12-05T01:51:45.428Z,1021.41
2018-12-05T01:52:45.171Z,1021.39
2018-12-05T01:53:45.166Z,1021.42
2018-12-05T01:54:45.206Z,1021.41
2018-12-05T01:55:45.250Z,1021.43
2018-12-05T01:56:45.180Z,1021.42
2018-12-05T01:57:45.208Z,1021.41
2018-12-05T01:58:45.185Z,1021.41
2018-12-05T01:59:45.223Z,1021.40
2018-12-05T02:00:45.206Z,1021.42
2018-12-05T02:01:45.273Z,1021.42
2018-12-05T02:02:45.272Z,1021.40
2018-12-05T02:03:45.198Z,1021.42
2018-12-05T02:04:45.232Z,1021.38
2018-12-05T02:05:45.212Z,1021.41
2018-12-05T02:06:45.269Z,1021.37
2018-12-05T02:07:45.230Z,1021.39
2018-12-05T02:08:45.334Z,1021.42
2018-12-05T02:09:45.222Z,1021.38
2018-12-05T02:10:45.249Z,1021.44
2018-12-05T02:11:45.306Z,1021.41
2018-12-05T02:12:45.305Z,1021.46
2018-12-05T02:13:45.225Z,1021.48
2018-12-05T02:14:45.247Z,1021.45
2018-12-05T02:15:45.305Z,1021.48
2018-12-05T02:16:45.281Z,1021.45
2018-12-05T02:17:45.312Z,1021.48
2018-12-05T05:53:40.650Z,1022.73
2018-12-05T05:54:40.661Z,1022.73
2018-12-05T05:55:40.640Z,1022.68
2018-12-05T05:56:40.651Z,1022.66
2018-12-05T05:57:40.689Z,1022.65
2018-12-05T05:58:40.655Z,1022.71
2018-12-05T05:59:40.656Z,1022.67
2018-12-05T06:00:40.659Z,1022.69
2018-12-05T06:01:40.680Z,1022.68
2018-12-05T06:02:40.664Z,1022.64
2018-12-05T06:03:40.733Z,1022.70
2018-12-05T06:04:40.677Z,1022.65
2018-12-05T06:05:40.661Z,1022.69
2018-12-05T06:06:40.718Z,1022.70
2018-12-05T06:07:40.690Z,1022.65
2018-12-05T06:08:40.721Z,1022.68
2018-12-05T06:09:40.736Z,1022.68
2018-12-05T06:10:40.691Z,1022.71
2018-12-05T06:11:40.672Z,1022.65
2018-12-05T06:12:40.676Z,1022.68
2018-12-05T06:13:40.694Z,1022.72
2018-12-05T06:14:40.986Z,1022.70
2018-12-05T06:15:40.769Z,1022.71
2018-12-05T06:16:40.722Z,1022.72
2018-12-05T06:17:40.913Z,1022.72
2018-12-05T06:18:40.717Z,1022.74
2018-12-05T06:19:40.723Z,1022.77
2018-12-05T06:20:40.723Z,1022.77
2018-12-05T06:21:40.747Z,1022.82
2018-12-05T06:22:40.749Z,1022.82
2018-12-05T06:23:40.749Z,1022.86
2018-12-05T06:24:40.722Z,1022.91
2018-12-05T06:25:40.730Z,1022.92
2018-12-05T06:26:40.739Z,1022.92
2018-12-05T06:27:40.795Z,1022.96
2018-12-05T06:28:40.990Z,1022.96
2018-12-05T06:29:40.801Z,1022.97
2018-12-05T06:30:40.743Z,1022.97
2018-12-05T06:31:40.750Z,1022.98
2018-12-05T06:32:40.754Z,1023.02
2018-12-05T06:33:40.811Z,1023.00
2018-12-05T06:34:40.761Z,1023.02
2018-12-05T06:35:40.791Z,1022.94
2018-12-05T06:36:40.999Z,1022.97
2018-12-05T06:37:40.989Z,1022.99
2018-12-05T06:38:40.766Z,1022.99
2018-12-05T06:39:40.917Z,1022.99
2018-12-05T06:40:41.013Z,1023.03
2018-12-05T06:41:40.785Z,1023.01
2018-12-05T06:42:40.806Z,1023.01
2018-12-05T06:43:40.830Z,1023.03
2018-12-05T06:44:40.830Z,1023.06
2018-12-05T06:45:40.807Z,1023.07
2018-12-05T06:46:40.854Z,1023.05
2018-12-05T06:47:40.812Z,1023.06
2018-12-05T06:48:40.831Z,1023.08
2018-12-05T06:49:40.811Z,1023.08
2018-12-05T06:50:40.888Z,1023.12
2018-12-05T06:51:40.999Z,1023.16
2018-12-05T06:52:40.814Z,1023.17
2018-12-05T06:53:40.833Z,1023.21
2018-12-05T06:54:40.909Z,1023.22
2018-12-05T06:55:40.919Z,1023.24
2018-12-05T06:56:40.897Z,1023.24
2018-12-05T06:57:40.851Z,1023.28
2018-12-05T06:58:40.938Z,1023.24
2018-12-05T06:59:40.862Z,1023.27
2018-12-05T07:00:40.854Z,1023.26
2018-12-05T07:01:40.947Z,1023.24
2018-12-05T07:02:40.960Z,1023.22
2018-12-05T07:03:41.227Z,1023.24
2018-12-05T07:04:40.908Z,1023.26
2018-12-05T07:05:40.914Z,1023.25
2018-12-05T07:06:40.885Z,1023.26
2018-12-05T07:07:40.939Z,1023.30
2018-12-05T07:08:40.869Z,1023.31
2018-12-05T07:09:40.900Z,1023.37
2018-12-05T07:10:40.924Z,1023.39
2018-12-05T07:11:40.932Z,1023.35
2018-12-05T07:12:40.924Z,1023.38
2018-12-05T07:13:40.878Z,1023.38
2018-12-05T07:14:40.913Z,1023.50
2018-12-05T07:15:40.897Z,1023.47
2018-12-05T07:16:40.915Z,1023.49
2018-12-05T07:17:40.955Z,1023.56
2018-12-05T07:18:40.936Z,1023.55
2018-12-05T07:19:41.002Z,1023.60
2018-12-05T07:20:40.928Z,1023.60
2018-12-05T07:21:40.938Z,1023.60
2018-12-05T07:22:40.969Z,1023.63
2018-12-05T07:23:41.027Z,1023.61
2018-12-05T07:24:40.934Z,1023.65
2018-12-05T07:25:40.953Z,1023.61
2018-12-05T07:26:40.937Z,1023.64
2018-12-05T07:27:40.954Z,1023.68
2018-12-05T07:28:40.993Z,1023.68
2018-12-05T07:29:41.002Z,1023.68
2018-12-05T07:30:41.038Z,1023.67
2018-12-05T07:31:40.995Z,1023.70
2018-12-05T07:32:40.989Z,1023.70
2018-12-05T07:33:40.982Z,1023.75
2018-12-05T07:34:41.027Z,1023.73
2018-12-05T07:35:40.982Z,1023.75
2018-12-05T07:36:40.983Z,1023.78
2018-12-05T07:37:40.984Z,1023.79
2018-12-05T07:38:40.997Z,1023.79
2018-12-05T07:39:41.159Z,1023.79
2018-12-05T07:40:41.016Z,1023.86
2018-12-05T07:41:41.020Z,1023.84
2018-12-05T07:42:41.026Z,1023.87
2018-12-05T07:43:41.029Z,1023.83
2018-12-05T07:44:41.044Z,1023.88
2018-12-05T07:45:41.059Z,1023.85
2018-12-05T07:46:41.043Z,1023.86
2018-12-05T07:47:40.998Z,1023.85
2018-12-05T07:48:41.018Z,1023.88
2018-12-05T07:49:41.017Z,1023.84
2018-12-05T07:50:41.079Z,1023.85
2018-12-05T07:51:41.033Z,1023.85
2018-12-05T07:52:41.024Z,1023.82
2018-12-05T07:53:41.051Z,1023.84
2018-12-05T07:54:41.055Z,1023.81
2018-12-05T07:55:41.082Z,1023.81
2018-12-05T07:56:41.049Z,1023.82
2018-12-05T07:57:41.061Z,1023.87
2018-12-05T07:58:41.073Z,1023.82
2018-12-05T07:59:41.066Z,1023.86
2018-12-05T08:00:41.131Z,1023.90
2018-12-05T08:01:41.095Z,1023.91
2018-12-05T08:02:41.072Z,1023.87
2018-12-05T08:03:41.080Z,1023.82
2018-12-05T08:04:41.079Z,1023.84
2018-12-05T08:05:41.081Z,1023.84
2018-12-05T08:06:41.142Z,1023.84
2018-12-05T08:07:41.109Z,1023.84
2018-12-05T08:08:41.106Z,1023.83
2018-12-05T08:09:41.107Z,1023.81
2018-12-05T08:10:41.102Z,1023.81
2018-12-05T08:11:41.155Z,1023.81
2018-12-05T08:12:41.156Z,1023.85
2018-12-05T08:13:41.099Z,1023.82
2018-12-05T08:14:41.107Z,1023.82
2018-12-05T08:15:41.174Z,1023.78
2018-12-05T08:16:41.114Z,1023.80
2018-12-05T08:17:41.167Z,1023.76
2018-12-05T08:18:41.150Z,1023.75
2018-12-05T08:19:41.123Z,1023.74
2018-12-05T08:20:41.195Z,1023.77
2018-12-05T08:21:41.152Z,1023.75
2018-12-05T08:22:41.174Z,1023.78
2018-12-05T08:23:41.153Z,1023.77
2018-12-05T08:24:41.170Z,1023.76
2018-12-05T08:25:41.182Z,1023.75
2018-12-05T08:26:41.150Z,1023.75
2018-12-05T08:27:41.184Z,1023.78
2018-12-05T08:28:41.237Z,1023.78
2018-12-05T08:29:41.164Z,1023.79
2018-12-05T08:30:41.161Z,1023.79
2018-12-05T08:31:41.196Z,1023.75
2018-12-05T08:32:41.198Z,1023.76
2018-12-05T08:33:41.230Z,1023.79
2018-12-05T08:34:41.207Z,1023.81
2018-12-05T08:35:41.179Z,1023.79
2018-12-05T08:36:41.188Z,1023.78
2018-12-05T08:37:41.180Z,1023.83
2018-12-05T08:38:41.223Z,1023.87
2018-12-05T08:39:41.324Z,1023.85
2018-12-05T08:40:41.254Z,1023.83
2018-12-05T08:41:41.210Z,1023.83
2018-12-05T08:42:41.226Z,1023.84
2018-12-05T08:43:41.296Z,1023.82
2018-12-05T08:44:41.222Z,1023.81
2018-12-05T08:45:41.278Z,1023.83
2018-12-05T08:46:41.273Z,1023.83
2018-12-05T08:47:41.241Z,1023.86
2018-12-05T08:48:41.291Z,1023.83
2018-12-05T08:49:41.236Z,1023.84
2018-12-05T08:50:41.234Z,1023.89
2018-12-05T08:51:41.322Z,1023.85
2018-12-05T08:52:41.298Z,1023.88
2018-12-05T08:53:41.272Z,1023.90
2018-12-05T08:54:41.266Z,1023.90
2018-12-05T08:55:41.258Z,1023.89
2018-12-05T08:56:41.263Z,1023.89
2018-12-05T08:57:41.258Z,1023.86
2018-12-05T08:58:41.335Z,1023.87
2018-12-05T08:59:41.288Z,1023.84
2018-12-05T09:00:41.295Z,1023.85
2018-12-05T09:01:41.278Z,1023.85
2018-12-05T09:02:41.878Z,1023.81
2018-12-05T09:03:41.274Z,1023.88
2018-12-05T09:04:41.381Z,1023.87
2018-12-05T09:05:41.284Z,1023.86
2018-12-05T09:06:41.291Z,1023.85
2018-12-05T09:07:41.384Z,1023.89
2018-12-05T09:08:41.380Z,1023.90
2018-12-05T09:09:41.388Z,1023.86
2018-12-05T09:10:41.321Z,1023.87
2018-12-05T09:11:41.349Z,1023.84
2018-12-05T09:12:41.332Z,1023.83
2018-12-05T09:13:41.360Z,1023.89
2018-12-05T09:14:41.375Z,1023.83
2018-12-05T09:15:41.371Z,1023.88
2018-12-05T09:16:41.352Z,1023.88
2018-12-05T09:17:41.339Z,1023.90
2018-12-05T09:18:41.372Z,1023.89
2018-12-05T09:19:41.365Z,1023.88
2018-12-05T09:20:41.556Z,1023.91
2018-12-05T09:21:41.380Z,1023.89
2018-12-05T09:22:41.800Z,1023.93
2018-12-05T09:23:41.375Z,1023.91
2018-12-05T09:24:41.387Z,1023.91
2018-12-05T09:25:41.390Z,1023.91
2018-12-05T09:26:41.497Z,1023.92
2018-12-05T09:27:41.364Z,1023.94
2018-12-05T09:28:41.392Z,1023.93
2018-12-05T09:29:41.402Z,1023.93
2018-12-05T09:30:41.379Z,1023.91
2018-12-05T09:31:41.387Z,1023.89
2018-12-05T09:32:41.447Z,1023.90
2018-12-05T09:33:41.415Z,1023.92
2018-12-05T09:34:41.422Z,1023.93
2018-12-05T09:35:41.412Z,1023.90
2018-12-05T09:36:41.414Z,1023.92
2018-12-05T09:37:41.429Z,1023.91
2018-12-05T09:38:41.414Z,1023.86
2018-12-05T09:39:41.477Z,1023.90
2018-12-05T09:40:41.443Z,1023.89
2018-12-05T09:41:41.458Z,1023.87
2018-12-05T09:42:41.532Z,1023.86
2018-12-05T09:43:41.468Z,1023.88
2018-12-05T09:44:41.515Z,1023.87
2018-12-05T09:45:41.540Z,1023.90
2018-12-05T09:46:41.475Z,1023.88
2018-12-05T09:47:41.464Z,1023.87
2018-12-05T09:48:41.560Z,1023.88
2018-12-05T09:49:41.563Z,1023.90
2018-12-05T09:50:41.469Z,1023.91
2018-12-05T09:51:41.479Z,1023.91
2018-12-05T09:52:41.471Z,1023.92
2018-12-05T09:53:41.547Z,1023.92
2018-12-05T09:54:42.377Z,1023.91
2018-12-05T09:55:41.495Z,1023.92
2018-12-05T09:56:41.506Z,1023.95
2018-12-05T09:57:41.501Z,1023.94
2018-12-05T09:58:41.488Z,1023.93
2018-12-05T09:59:42.072Z,1023.95
2018-12-05T10:00:41.544Z,1023.94
2018-12-05T10:01:41.544Z,1023.91
2018-12-05T10:02:41.508Z,1023.95
2018-12-05T10:03:41.522Z,1023.98
2018-12-05T10:04:41.674Z,1023.99
2018-12-05T10:05:41.565Z,1024.00
2018-12-05T10:06:41.525Z,1024.02
2018-12-05T10:07:41.567Z,1024.05
2018-12-05T10:08:41.585Z,1024.05
2018-12-05T10:09:43.267Z,1024.02
2018-12-05T10:10:41.551Z,1024.03
2018-12-05T10:11:41.586Z,1024.08
2018-12-05T10:12:41.563Z,1024.06
2018-12-05T10:13:41.563Z,1024.08
2018-12-05T10:14:41.675Z,1024.12
2018-12-05T10:15:41.649Z,1024.07
2018-12-05T10:16:41.678Z,1024.03
2018-12-05T10:17:42.834Z,1024.05
2018-12-05T10:18:41.605Z,1024.03
2018-12-05T10:19:41.606Z,1024.04
2018-12-05T10:20:41.610Z,1024.02
2018-12-05T10:21:41.687Z,1024.02
2018-12-05T10:22:41.606Z,1023.98
2018-12-05T10:23:41.595Z,1023.94
2018-12-05T10:24:41.601Z,1023.92
2018-12-05T10:25:41.709Z,1023.90
2018-12-05T10:26:41.610Z,1023.88
2018-12-05T10:27:41.616Z,1023.92
2018-12-05T10:28:41.873Z,1023.87
2018-12-05T10:29:41.638Z,1023.83
2018-12-05T10:30:41.634Z,1023.86
2018-12-05T10:31:44.204Z,1023.86
2018-12-05T10:32:41.661Z,1023.85
2018-12-05T10:33:41.663Z,1023.85
2018-12-05T10:34:41.685Z,1023.85
2018-12-05T10:35:41.673Z,1023.84
2018-12-05T10:36:41.685Z,1023.83
2018-12-05T10:37:41.712Z,1023.87
2018-12-05T10:38:41.669Z,1023.84
2018-12-05T10:39:41.816Z,1023.83
2018-12-05T10:40:41.752Z,1023.82
2018-12-05T10:41:41.709Z,1023.83
2018-12-05T10:42:41.734Z,1023.84
2018-12-05T10:43:41.761Z,1023.84
2018-12-05T10:44:41.726Z,1023.81
2018-12-05T10:45:41.713Z,1023.78
2018-12-05T10:46:41.736Z,1023.79
2018-12-05T10:47:41.690Z,1023.77
2018-12-05T10:48:41.797Z,1023.75
2018-12-05T10:49:41.721Z,1023.73
2018-12-05T10:50:41.706Z,1023.72
2018-12-05T10:51:41.719Z,1023.69
2018-12-05T10:52:41.725Z,1023.72
2018-12-05T10:53:41.735Z,1023.64
2018-12-05T10:54:42.049Z,1023.69
2018-12-05T10:55:41.744Z,1023.68
2018-12-05T10:56:41.750Z,1023.63
2018-12-05T10:57:41.776Z,1023.66
2018-12-05T10:58:41.783Z,1023.67
2018-12-05T10:59:41.781Z,1023.68
2018-12-05T11:00:41.791Z,1023.67
2018-12-05T11:01:41.784Z,1023.64
2018-12-05T11:02:41.862Z,1023.66
2018-12-05T11:03:41.796Z,1023.64
2018-12-05T11:04:41.825Z,1023.68
2018-12-05T11:05:41.822Z,1023.66
2018-12-05T11:06:41.789Z,1023.65
2018-12-05T11:07:41.825Z,1023.61
2018-12-05T11:08:41.790Z,1023.65
2018-12-05T11:09:41.824Z,1023.61
2018-12-05T11:10:41.800Z,1023.61
2018-12-05T11:11:41.807Z,1023.61
2018-12-05T11:12:41.803Z,1023.59
2018-12-05T11:13:41.809Z,1023.57
2018-12-05T11:14:41.835Z,1023.60
2018-12-05T11:15:41.923Z,1023.53
2018-12-05T11:16:41.843Z,1023.54
2018-12-05T11:17:41.865Z,1023.53
2018-12-05T11:18:41.855Z,1023.55
2018-12-05T11:19:41.847Z,1023.52
2018-12-05T11:20:41.926Z,1023.51
2018-12-05T11:21:41.873Z,1023.49
2018-12-05T11:22:41.961Z,1023.49
2018-12-05T11:23:41.947Z,1023.48
2018-12-05T11:24:41.915Z,1023.48
2018-12-05T11:25:42.078Z,1023.46
2018-12-05T11:26:41.912Z,1023.47
2018-12-05T11:27:41.896Z,1023.46
2018-12-05T11:28:42.157Z,1023.49
2018-12-05T11:29:42.665Z,1023.49
2018-12-05T11:30:41.917Z,1023.47
2018-12-05T11:31:41.894Z,1023.51
2018-12-05T11:32:42.182Z,1023.49
2018-12-05T11:33:41.966Z,1023.53
2018-12-05T11:34:41.933Z,1023.51
2018-12-05T11:35:41.965Z,1023.50
2018-12-05T11:36:41.994Z,1023.50
2018-12-05T11:37:41.978Z,1023.52
2018-12-05T11:38:41.914Z,1023.52
2018-12-05T11:39:41.941Z,1023.52
2018-12-05T11:40:41.977Z,1023.53
2018-12-05T11:41:41.954Z,1023.53
2018-12-05T11:42:41.999Z,1023.50
2018-12-05T11:43:42.015Z,1023.52
2018-12-05T11:44:42.013Z,1023.51
2018-12-05T11:45:41.977Z,1023.50
2018-12-05T11:46:42.888Z,1023.49
2018-12-05T11:47:42.047Z,1023.49
2018-12-05T11:48:42.064Z,1023.52
2018-12-05T11:49:41.997Z,1023.52
2018-12-05T11:50:42.056Z,1023.50
2018-12-05T11:51:41.985Z,1023.48
2018-12-05T11:52:42.088Z,1023.47
2018-12-05T11:53:42.061Z,1023.50
2018-12-05T11:54:42.024Z,1023.46
2018-12-05T11:55:42.004Z,1023.47
2018-12-05T11:56:42.002Z,1023.47
2018-12-05T11:57:42.054Z,1023.45
2018-12-05T11:58:42.030Z,1023.45
2018-12-05T11:59:42.050Z,1023.49
2018-12-05T12:00:42.150Z,1023.45
2018-12-05T12:01:42.033Z,1023.42
2018-12-05T12:02:42.059Z,1023.43
2018-12-05T12:03:42.034Z,1023.40
2018-12-05T12:04:42.068Z,1023.34
2018-12-05T12:05:42.057Z,1023.37
2018-12-05T12:06:42.064Z,1023.33
2018-12-05T12:07:42.072Z,1023.30
2018-12-05T12:08:42.080Z,1023.31
2018-12-05T12:09:42.089Z,1023.25
2018-12-05T12:10:42.092Z,1023.28
2018-12-05T12:11:42.097Z,1023.23
2018-12-05T12:12:42.095Z,1023.23
2018-12-05T12:13:42.109Z,1023.23
2018-12-05T12:14:42.116Z,1023.19
2018-12-05T12:15:42.121Z,1023.18
2018-12-05T12:16:42.091Z,1023.18
2018-12-05T12:17:42.139Z,1023.16
2018-12-05T12:18:42.163Z,1023.17
2018-12-05T12:19:42.105Z,1023.18
2018-12-05T12:20:42.164Z,1023.19
2018-12-05T12:21:42.156Z,1023.17
2018-12-05T12:22:42.105Z,1023.19
2018-12-05T12:23:42.122Z,1023.16
2018-12-05T12:24:42.144Z,1023.15
2018-12-05T12:25:42.200Z,1023.13
2018-12-05T12:26:42.148Z,1023.12
2018-12-05T12:27:42.153Z,1023.13
2018-12-05T12:28:42.419Z,1023.12
2018-12-05T12:29:42.162Z,1023.08
2018-12-05T12:30:42.227Z,1023.08
2018-12-05T12:31:42.163Z,1023.08
2018-12-05T12:32:42.179Z,1023.08
2018-12-05T12:33:42.218Z,1023.08
2018-12-05T12:34:42.224Z,1023.13
2018-12-05T12:35:42.255Z,1023.09
2018-12-05T12:36:42.269Z,1023.10
2018-12-05T12:37:42.177Z,1023.09
2018-12-05T12:38:42.215Z,1023.07
2018-12-05T12:39:42.243Z,1023.09
2018-12-05T12:40:42.212Z,1023.11
2018-12-05T12:41:42.221Z,1023.10
2018-12-05T12:42:42.303Z,1023.09
2018-12-05T12:43:42.208Z,1023.07
2018-12-05T12:44:42.218Z,1023.05
2018-12-05T12:45:42.230Z,1023.01
2018-12-05T12:46:42.272Z,1023.03
2018-12-05T12:47:42.327Z,1023.03
2018-12-05T12:48:42.254Z,1023.01
2018-12-05T12:49:42.261Z,1023.02
2018-12-05T12:50:42.266Z,1022.97
2018-12-05T12:51:42.275Z,1022.99
2018-12-05T12:52:42.247Z,1023.01
2018-12-05T12:53:42.312Z,1022.97
2018-12-05T12:54:42.260Z,1022.98
2018-12-05T12:55:42.270Z,1022.96
2018-12-05T12:56:42.345Z,1022.99
2018-12-05T12:57:42.299Z,1022.97
2018-12-05T12:58:42.357Z,1022.94
2018-12-05T12:59:42.299Z,1022.96
2018-12-05T13:00:42.286Z,1022.93
2018-12-05T13:01:42.318Z,1022.93
2018-12-05T13:02:42.311Z,1022.97
2018-12-05T13:03:42.302Z,1022.96
2018-12-05T13:04:42.375Z,1023.00
2018-12-05T13:05:42.320Z,1022.97
2018-12-05T13:06:42.309Z,1023.01
2018-12-05T13:07:42.328Z,1022.99
2018-12-05T13:08:42.374Z,1023.01
2018-12-05T13:09:42.356Z,1022.96
2018-12-05T13:10:42.345Z,1022.92
2018-12-05T13:11:42.405Z,1022.95
2018-12-05T13:12:42.375Z,1022.95
2018-12-05T13:13:42.348Z,1022.96
2018-12-05T13:14:42.366Z,1022.92
2018-12-05T13:15:42.360Z,1022.92
2018-12-05T13:16:42.364Z,1022.91
2018-12-05T13:17:42.388Z,1022.90
2018-12-05T13:18:42.562Z,1022.88
2018-12-05T13:19:42.395Z,1022.86
2018-12-05T13:20:42.394Z,1022.86
2018-12-05T13:21:42.390Z,1022.86
2018-12-05T13:22:42.499Z,1022.85
2018-12-05T13:23:42.416Z,1022.86
2018-12-05T13:24:42.456Z,1022.87
2018-12-05T13:25:42.489Z,1022.82
2018-12-05T13:26:42.434Z,1022.87
2018-12-05T13:27:42.412Z,1022.88
2018-12-05T13:28:42.424Z,1022.84
2018-12-05T13:29:42.414Z,1022.87
2018-12-05T13:30:42.426Z,1022.84
2018-12-05T13:31:42.548Z,1022.85
2018-12-05T13:32:42.429Z,1022.84
2018-12-05T13:33:42.434Z,1022.79
2018-12-05T13:34:42.467Z,1022.81
2018-12-05T13:35:42.456Z,1022.80
2018-12-05T13:36:42.642Z,1022.80
2018-12-05T13:37:42.546Z,1022.78
2018-12-05T13:38:42.463Z,1022.78
2018-12-05T13:39:42.516Z,1022.75
2018-12-05T13:40:42.514Z,1022.76
2018-12-05T13:41:42.505Z,1022.78
2018-12-05T13:42:42.594Z,1022.73
2018-12-05T13:43:42.524Z,1022.77
2018-12-05T13:44:42.567Z,1022.75
2018-12-05T13:45:42.535Z,1022.74
2018-12-05T13:46:42.553Z,1022.74
2018-12-05T13:47:42.542Z,1022.74
2018-12-05T13:48:42.592Z,1022.73
2018-12-05T13:49:42.538Z,1022.71
2018-12-05T13:50:42.588Z,1022.74
2018-12-05T13:51:42.548Z,1022.73
2018-12-05T13:52:42.523Z,1022.71
2018-12-05T13:53:42.564Z,1022.71
2018-12-05T13:54:42.569Z,1022.72
2018-12-05T13:55:42.525Z,1022.69
2018-12-05T13:56:42.529Z,1022.66
2018-12-05T13:57:42.597Z,1022.61
2018-12-05T13:58:42.550Z,1022.62
2018-12-05T13:59:42.550Z,1022.64
2018-12-05T14:00:42.649Z,1022.58
2018-12-05T14:01:42.571Z,1022.54
2018-12-05T14:02:42.569Z,1022.57
2018-12-05T14:03:42.578Z,1022.55
2018-12-05T14:04:42.696Z,1022.58
2018-12-05T14:05:42.592Z,1022.62
2018-12-05T14:06:42.674Z,1022.58
2018-12-05T14:07:42.678Z,1022.62
2018-12-05T14:08:42.633Z,1022.58
2018-12-05T14:09:42.611Z,1022.56
2018-12-05T14:10:42.663Z,1022.58
2018-12-05T14:11:42.695Z,1022.56
2018-12-05T14:12:42.644Z,1022.56
2018-12-05T14:13:42.752Z,1022.57
2018-12-05T14:14:42.645Z,1022.57
2018-12-05T14:15:42.641Z,1022.51
2018-12-05T14:16:43.485Z,1022.49
2018-12-05T14:17:42.662Z,1022.53
2018-12-05T14:18:42.677Z,1022.51
2018-12-05T14:19:42.647Z,1022.53
2018-12-05T14:20:42.679Z,1022.56
2018-12-05T14:21:42.654Z,1022.57
2018-12-05T14:22:42.668Z,1022.53
2018-12-05T14:23:42.712Z,1022.54
2018-12-05T14:24:42.688Z,1022.55
2018-12-05T14:25:42.761Z,1022.50
2018-12-05T14:26:42.719Z,1022.48
2018-12-05T14:27:42.728Z,1022.40
2018-12-05T14:28:42.939Z,1022.44
2018-12-05T14:29:42.745Z,1022.38
2018-12-05T14:30:42.699Z,1022.39
2018-12-05T14:31:42.760Z,1022.40
2018-12-05T14:32:42.893Z,1022.39
2018-12-05T14:33:42.722Z,1022.37
2018-12-05T14:34:42.775Z,1022.36
2018-12-05T14:35:42.704Z,1022.38
2018-12-05T14:36:42.735Z,1022.36
2018-12-05T14:37:42.859Z,1022.36
2018-12-05T14:38:42.750Z,1022.31
2018-12-05T14:39:42.759Z,1022.32
2018-12-05T14:40:42.740Z,1022.34
2018-12-05T14:41:42.737Z,1022.24
2018-12-05T14:42:42.782Z,1022.28
2018-12-05T14:43:42.802Z,1022.23
2018-12-05T14:44:42.750Z,1022.24
2018-12-05T14:45:42.821Z,1022.25
2018-12-05T14:46:42.778Z,1022.29
2018-12-05T14:47:42.767Z,1022.26
2018-12-05T14:48:42.752Z,1022.28
2018-12-05T14:49:42.793Z,1022.28
2018-12-05T14:50:42.795Z,1022.31
2018-12-05T14:51:42.805Z,1022.29
2018-12-05T14:52:42.809Z,1022.32
2018-12-05T14:53:42.789Z,1022.32
2018-12-05T14:54:42.798Z,1022.31
2018-12-05T14:55:42.822Z,1022.32
2018-12-05T14:56:42.830Z,1022.29
2018-12-05T14:57:42.802Z,1022.34
2018-12-05T14:58:42.814Z,1022.34
2018-12-05T14:59:42.854Z,1022.34
2018-12-05T15:00:42.808Z,1022.36
2018-12-05T15:01:42.832Z,1022.36
2018-12-05T15:02:42.864Z,1022.36
2018-12-05T15:03:42.846Z,1022.38
2018-12-05T15:04:42.912Z,1022.37
2018-12-05T15:05:42.843Z,1022.35
2018-12-05T15:06:42.841Z,1022.33
2018-12-05T15:07:42.837Z,1022.32
2018-12-05T15:08:42.999Z,1022.31
2018-12-05T15:09:42.852Z,1022.27
2018-12-05T15:10:42.919Z,1022.27
2018-12-05T15:11:42.875Z,1022.28
2018-12-05T15:12:42.896Z,1022.30
2018-12-05T15:13:42.920Z,1022.27
2018-12-05T15:14:42.886Z,1022.25
2018-12-05T15:15:42.944Z,1022.26
2018-12-05T15:16:42.879Z,1022.26
2018-12-05T15:17:43.058Z,1022.24
2018-12-05T15:18:42.983Z,1022.26
2018-12-05T15:19:42.891Z,1022.22
2018-12-05T15:20:42.928Z,1022.24
2018-12-05T15:21:42.926Z,1022.22
2018-12-05T15:22:42.901Z,1022.21
2018-12-05T15:23:42.967Z,1022.21
2018-12-05T15:24:42.945Z,1022.16
2018-12-05T15:25:42.924Z,1022.14
2018-12-05T15:26:42.937Z,1022.13
2018-12-05T15:27:42.964Z,1022.10
2018-12-05T15:28:43.209Z,1022.09
2018-12-05T15:29:42.925Z,1022.06
2018-12-05T15:30:42.960Z,1022.07
2018-12-05T15:31:43.005Z,1022.04
2018-12-05T15:32:42.956Z,1022.05
2018-12-05T15:33:42.967Z,1022.03
2018-12-05T15:34:42.955Z,1022.01
2018-12-05T15:35:42.949Z,1022.02
2018-12-05T15:36:43.001Z,1022.01
2018-12-05T15:37:42.996Z,1021.97
2018-12-05T15:38:42.970Z,1021.98
2018-12-05T15:39:43.029Z,1021.92
2018-12-05T15:40:42.975Z,1021.95